sensor_id;sensor_type;location;lat;lon;timestamp;P1;durP1;ratioP1;P2;durP2;ratioP2
59846;SDS011;45728;48.788;2.302;2023-07-24T00:00:40;4.53;;;3.65;;
59846;SDS011;45728;48.788;2.302;2023-07-24T00:03:06;9.80;;;4.10;;
59846;SDS011;45728;48.788;2.302;2023-07-24T00:05:32;7.80;;;3.80;;
59846;SDS011;45728;48.788;2.302;2023-07-24T00:07:58;8.05;;;3.92;;
59846;SDS011;45728;48.788;2.302;2023-07-24T00:10:24;4.70;;;3.67;;
59846;SDS011;45728;48.788;2.302;2023-07-24T00:12:50;5.95;;;3.55;;
59846;SDS011;45728;48.788;2.302;2023-07-24T00:15:16;5.00;;;3.85;;
59846;SDS011;45728;48.788;2.302;2023-07-24T00:17:43;3.75;;;3.05;;
59846;SDS011;45728;48.788;2.302;2023-07-24T00:20:09;4.43;;;3.42;;
59846;SDS011;45728;48.788;2.302;2023-07-24T00:22:35;6.15;;;3.85;;
59846;SDS011;45728;48.788;2.302;2023-07-24T00:25:01;4.80;;;3.75;;
59846;SDS011;45728;48.788;2.302;2023-07-24T00:27:27;4.70;;;3.80;;
59846;SDS011;45728;48.788;2.302;2023-07-24T00:29:53;7.43;;;3.53;;
59846;SDS011;45728;48.788;2.302;2023-07-24T00:32:19;4.63;;;3.65;;
59846;SDS011;45728;48.788;2.302;2023-07-24T00:34:45;6.00;;;3.72;;
59846;SDS011;45728;48.788;2.302;2023-07-24T00:37:12;4.22;;;3.20;;
59846;SDS011;45728;48.788;2.302;2023-07-24T00:39:38;6.93;;;4.05;;
59846;SDS011;45728;48.788;2.302;2023-07-24T00:42:04;5.03;;;3.42;;
59846;SDS011;45728;48.788;2.302;2023-07-24T00:44:30;6.07;;;3.60;;
59846;SDS011;45728;48.788;2.302;2023-07-24T00:46:56;4.43;;;3.50;;
59846;SDS011;45728;48.788;2.302;2023-07-24T00:49:23;4.38;;;3.53;;
59846;SDS011;45728;48.788;2.302;2023-07-24T00:51:49;5.30;;;4.05;;
59846;SDS011;45728;48.788;2.302;2023-07-24T00:54:16;4.22;;;3.40;;
59846;SDS011;45728;48.788;2.302;2023-07-24T00:56:43;5.50;;;3.40;;
59846;SDS011;45728;48.788;2.302;2023-07-24T00:59:10;5.05;;;3.55;;
59846;SDS011;45728;48.788;2.302;2023-07-24T01:01:37;6.13;;;3.75;;
59846;SDS011;45728;48.788;2.302;2023-07-24T01:04:05;4.32;;;3.42;;
59846;SDS011;45728;48.788;2.302;2023-07-24T01:06:32;5.45;;;3.38;;
59846;SDS011;45728;48.788;2.302;2023-07-24T01:08:58;5.30;;;3.88;;
59846;SDS011;45728;48.788;2.302;2023-07-24T01:11:27;5.40;;;3.90;;
59846;SDS011;45728;48.788;2.302;2023-07-24T01:14:06;5.35;;;3.60;;
59846;SDS011;45728;48.788;2.302;2023-07-24T01:16:37;7.65;;;3.80;;
59846;SDS011;45728;48.788;2.302;2023-07-24T01:22:01;4.63;;;3.50;;
59846;SDS011;45728;48.788;2.302;2023-07-24T01:27:20;7.15;;;4.38;;
59846;SDS011;45728;48.788;2.302;2023-07-24T01:29:49;5.43;;;3.80;;
59846;SDS011;45728;48.788;2.302;2023-07-24T01:32:15;5.57;;;3.90;;
59846;SDS011;45728;48.788;2.302;2023-07-24T01:34:42;6.50;;;4.13;;
59846;SDS011;45728;48.788;2.302;2023-07-24T01:37:08;5.20;;;4.25;;
59846;SDS011;45728;48.788;2.302;2023-07-24T01:39:36;6.55;;;3.92;;
59846;SDS011;45728;48.788;2.302;2023-07-24T01:42:03;5.50;;;4.32;;
59846;SDS011;45728;48.788;2.302;2023-07-24T01:44:29;5.72;;;4.20;;
59846;SDS011;45728;48.788;2.302;2023-07-24T01:46:55;5.57;;;4.00;;
59846;SDS011;45728;48.788;2.302;2023-07-24T01:49:21;5.63;;;3.80;;
59846;SDS011;45728;48.788;2.302;2023-07-24T01:51:47;5.60;;;4.13;;
59846;SDS011;45728;48.788;2.302;2023-07-24T01:54:13;6.88;;;4.13;;
59846;SDS011;45728;48.788;2.302;2023-07-24T01:56:39;6.10;;;4.13;;
59846;SDS011;45728;48.788;2.302;2023-07-24T01:59:06;7.15;;;4.10;;
59846;SDS011;45728;48.788;2.302;2023-07-24T02:01:32;4.88;;;4.20;;
59846;SDS011;45728;48.788;2.302;2023-07-24T02:03:58;6.18;;;4.40;;
59846;SDS011;45728;48.788;2.302;2023-07-24T02:06:24;8.68;;;4.70;;
59846;SDS011;45728;48.788;2.302;2023-07-24T02:08:50;5.55;;;4.43;;
59846;SDS011;45728;48.788;2.302;2023-07-24T02:11:17;6.93;;;4.43;;
59846;SDS011;45728;48.788;2.302;2023-07-24T02:13:44;8.27;;;4.25;;
59846;SDS011;45728;48.788;2.302;2023-07-24T02:16:11;7.82;;;4.32;;
59846;SDS011;45728;48.788;2.302;2023-07-24T02:18:38;7.63;;;4.93;;
59846;SDS011;45728;48.788;2.302;2023-07-24T02:21:06;6.10;;;4.45;;
59846;SDS011;45728;48.788;2.302;2023-07-24T02:23:32;7.60;;;4.90;;
59846;SDS011;45728;48.788;2.302;2023-07-24T02:25:58;7.05;;;4.68;;
59846;SDS011;45728;48.788;2.302;2023-07-24T02:28:24;9.32;;;5.03;;
59846;SDS011;45728;48.788;2.302;2023-07-24T02:30:50;9.50;;;4.72;;
59846;SDS011;45728;48.788;2.302;2023-07-24T02:33:17;6.53;;;4.22;;
59846;SDS011;45728;48.788;2.302;2023-07-24T02:35:43;6.75;;;4.78;;
59846;SDS011;45728;48.788;2.302;2023-07-24T02:38:09;5.10;;;4.45;;
59846;SDS011;45728;48.788;2.302;2023-07-24T02:40:35;6.95;;;4.68;;
59846;SDS011;45728;48.788;2.302;2023-07-24T02:43:02;6.97;;;4.60;;
59846;SDS011;45728;48.788;2.302;2023-07-24T02:45:28;6.93;;;4.95;;
59846;SDS011;45728;48.788;2.302;2023-07-24T02:47:54;8.48;;;4.95;;
59846;SDS011;45728;48.788;2.302;2023-07-24T02:50:20;8.80;;;4.95;;
59846;SDS011;45728;48.788;2.302;2023-07-24T02:52:46;8.13;;;4.60;;
59846;SDS011;45728;48.788;2.302;2023-07-24T02:55:12;6.57;;;4.75;;
59846;SDS011;45728;48.788;2.302;2023-07-24T02:57:38;5.78;;;4.72;;
59846;SDS011;45728;48.788;2.302;2023-07-24T03:00:04;5.60;;;4.50;;
59846;SDS011;45728;48.788;2.302;2023-07-24T03:02:31;6.53;;;4.93;;
59846;SDS011;45728;48.788;2.302;2023-07-24T03:04:57;6.20;;;5.07;;
59846;SDS011;45728;48.788;2.302;2023-07-24T03:07:23;5.90;;;4.80;;
59846;SDS011;45728;48.788;2.302;2023-07-24T03:09:50;7.85;;;4.95;;
59846;SDS011;45728;48.788;2.302;2023-07-24T03:12:16;5.20;;;4.50;;
59846;SDS011;45728;48.788;2.302;2023-07-24T03:14:42;7.25;;;4.53;;
59846;SDS011;45728;48.788;2.302;2023-07-24T03:17:08;8.13;;;5.18;;
59846;SDS011;45728;48.788;2.302;2023-07-24T03:19:34;7.55;;;4.60;;
59846;SDS011;45728;48.788;2.302;2023-07-24T03:22:00;6.82;;;5.10;;
59846;SDS011;45728;48.788;2.302;2023-07-24T03:24:26;6.00;;;4.68;;
59846;SDS011;45728;48.788;2.302;2023-07-24T03:26:53;6.60;;;5.13;;
59846;SDS011;45728;48.788;2.302;2023-07-24T03:29:19;9.68;;;5.20;;
59846;SDS011;45728;48.788;2.302;2023-07-24T03:31:45;7.43;;;4.97;;
59846;SDS011;45728;48.788;2.302;2023-07-24T03:34:11;6.38;;;5.13;;
59846;SDS011;45728;48.788;2.302;2023-07-24T03:36:37;7.75;;;5.00;;
59846;SDS011;45728;48.788;2.302;2023-07-24T03:39:06;8.90;;;5.35;;
59846;SDS011;45728;48.788;2.302;2023-07-24T03:41:33;5.25;;;4.75;;
59846;SDS011;45728;48.788;2.302;2023-07-24T03:43:59;7.53;;;5.55;;
59846;SDS011;45728;48.788;2.302;2023-07-24T03:46:25;6.75;;;5.28;;
59846;SDS011;45728;48.788;2.302;2023-07-24T03:48:51;8.20;;;5.45;;
59846;SDS011;45728;48.788;2.302;2023-07-24T03:51:17;6.88;;;5.68;;
59846;SDS011;45728;48.788;2.302;2023-07-24T03:53:43;7.03;;;4.90;;
59846;SDS011;45728;48.788;2.302;2023-07-24T03:56:09;7.45;;;5.22;;
59846;SDS011;45728;48.788;2.302;2023-07-24T03:58:36;6.28;;;5.00;;
59846;SDS011;45728;48.788;2.302;2023-07-24T04:01:04;6.37;;;4.50;;
59846;SDS011;45728;48.788;2.302;2023-07-24T04:03:30;5.85;;;4.75;;
59846;SDS011;45728;48.788;2.302;2023-07-24T04:05:56;6.28;;;4.60;;
59846;SDS011;45728;48.788;2.302;2023-07-24T04:08:22;5.50;;;4.70;;
59846;SDS011;45728;48.788;2.302;2023-07-24T04:10:48;6.05;;;4.00;;
59846;SDS011;45728;48.788;2.302;2023-07-24T04:13:14;4.95;;;4.18;;
59846;SDS011;45728;48.788;2.302;2023-07-24T04:15:40;4.85;;;3.42;;
59846;SDS011;45728;48.788;2.302;2023-07-24T04:18:06;4.78;;;3.80;;
59846;SDS011;45728;48.788;2.302;2023-07-24T04:20:32;4.38;;;3.60;;
59846;SDS011;45728;48.788;2.302;2023-07-24T04:22:58;5.05;;;3.10;;
59846;SDS011;45728;48.788;2.302;2023-07-24T04:25:25;3.70;;;3.20;;
59846;SDS011;45728;48.788;2.302;2023-07-24T04:27:51;3.90;;;2.80;;
59846;SDS011;45728;48.788;2.302;2023-07-24T04:30:17;3.13;;;2.80;;
59846;SDS011;45728;48.788;2.302;2023-07-24T04:32:43;3.55;;;2.92;;
59846;SDS011;45728;48.788;2.302;2023-07-24T04:35:09;3.35;;;3.05;;
59846;SDS011;45728;48.788;2.302;2023-07-24T04:37:35;3.20;;;2.88;;
59846;SDS011;45728;48.788;2.302;2023-07-24T04:40:01;2.97;;;2.70;;
59846;SDS011;45728;48.788;2.302;2023-07-24T04:42:27;3.35;;;2.92;;
59846;SDS011;45728;48.788;2.302;2023-07-24T04:44:53;3.00;;;2.70;;
59846;SDS011;45728;48.788;2.302;2023-07-24T04:47:19;3.13;;;2.75;;
59846;SDS011;45728;48.788;2.302;2023-07-24T04:49:45;3.88;;;2.55;;
59846;SDS011;45728;48.788;2.302;2023-07-24T04:52:11;2.88;;;2.60;;
59846;SDS011;45728;48.788;2.302;2023-07-24T04:54:37;2.55;;;2.35;;
59846;SDS011;45728;48.788;2.302;2023-07-24T04:57:04;2.85;;;2.60;;
59846;SDS011;45728;48.788;2.302;2023-07-24T04:59:30;3.53;;;2.65;;
59846;SDS011;45728;48.788;2.302;2023-07-24T05:01:56;3.03;;;2.53;;
59846;SDS011;45728;48.788;2.302;2023-07-24T05:04:22;2.88;;;2.55;;
59846;SDS011;45728;48.788;2.302;2023-07-24T05:06:48;3.30;;;2.42;;
59846;SDS011;45728;48.788;2.302;2023-07-24T05:09:14;3.00;;;2.28;;
59846;SDS011;45728;48.788;2.302;2023-07-24T05:11:41;3.63;;;2.63;;
59846;SDS011;45728;48.788;2.302;2023-07-24T05:16:36;2.80;;;2.50;;
59846;SDS011;45728;48.788;2.302;2023-07-24T05:19:02;2.58;;;2.15;;
59846;SDS011;45728;48.788;2.302;2023-07-24T05:21:28;2.75;;;2.22;;
59846;SDS011;45728;48.788;2.302;2023-07-24T05:23:54;2.53;;;2.33;;
59846;SDS011;45728;48.788;2.302;2023-07-24T05:26:20;3.00;;;2.17;;
59846;SDS011;45728;48.788;2.302;2023-07-24T05:28:47;2.20;;;2.00;;
59846;SDS011;45728;48.788;2.302;2023-07-24T05:31:13;2.25;;;2.03;;
59846;SDS011;45728;48.788;2.302;2023-07-24T05:33:58;3.13;;;2.28;;
59846;SDS011;45728;48.788;2.302;2023-07-24T05:36:24;2.50;;;2.05;;
59846;SDS011;45728;48.788;2.302;2023-07-24T05:38:51;2.72;;;1.80;;
59846;SDS011;45728;48.788;2.302;2023-07-24T05:41:18;3.03;;;1.88;;
59846;SDS011;45728;48.788;2.302;2023-07-24T05:43:44;2.95;;;2.10;;
59846;SDS011;45728;48.788;2.302;2023-07-24T05:46:10;4.22;;;2.20;;
59846;SDS011;45728;48.788;2.302;2023-07-24T05:48:36;2.70;;;1.85;;
59846;SDS011;45728;48.788;2.302;2023-07-24T05:51:02;1.88;;;1.67;;
59846;SDS011;45728;48.788;2.302;2023-07-24T05:53:28;2.75;;;1.95;;
59846;SDS011;45728;48.788;2.302;2023-07-24T05:55:58;2.70;;;1.90;;
59846;SDS011;45728;48.788;2.302;2023-07-24T05:58:25;2.13;;;1.58;;
59846;SDS011;45728;48.788;2.302;2023-07-24T06:00:51;2.75;;;1.83;;
59846;SDS011;45728;48.788;2.302;2023-07-24T06:03:17;4.30;;;1.90;;
59846;SDS011;45728;48.788;2.302;2023-07-24T06:05:43;2.40;;;1.90;;
59846;SDS011;45728;48.788;2.302;2023-07-24T06:08:10;2.50;;;1.90;;
59846;SDS011;45728;48.788;2.302;2023-07-24T06:10:37;2.00;;;1.80;;
59846;SDS011;45728;48.788;2.302;2023-07-24T06:13:03;3.13;;;2.13;;
59846;SDS011;45728;48.788;2.302;2023-07-24T06:15:29;2.58;;;2.15;;
59846;SDS011;45728;48.788;2.302;2023-07-24T06:17:55;2.60;;;1.90;;
59846;SDS011;45728;48.788;2.302;2023-07-24T06:20:21;3.45;;;2.25;;
59846;SDS011;45728;48.788;2.302;2023-07-24T06:22:47;3.83;;;2.10;;
59846;SDS011;45728;48.788;2.302;2023-07-24T06:25:13;2.65;;;2.10;;
59846;SDS011;45728;48.788;2.302;2023-07-24T06:27:39;2.47;;;2.03;;
59846;SDS011;45728;48.788;2.302;2023-07-24T06:30:05;3.30;;;1.70;;
59846;SDS011;45728;48.788;2.302;2023-07-24T06:32:32;3.47;;;2.03;;
59846;SDS011;45728;48.788;2.302;2023-07-24T06:34:58;2.65;;;1.95;;
59846;SDS011;45728;48.788;2.302;2023-07-24T06:37:24;2.80;;;1.73;;
59846;SDS011;45728;48.788;2.302;2023-07-24T06:39:51;2.35;;;1.90;;
59846;SDS011;45728;48.788;2.302;2023-07-24T06:42:17;3.00;;;1.67;;
59846;SDS011;45728;48.788;2.302;2023-07-24T06:44:43;2.78;;;1.83;;
59846;SDS011;45728;48.788;2.302;2023-07-24T06:47:09;3.72;;;1.75;;
59846;SDS011;45728;48.788;2.302;2023-07-24T06:49:35;1.83;;;1.65;;
59846;SDS011;45728;48.788;2.302;2023-07-24T06:52:01;2.30;;;1.83;;
59846;SDS011;45728;48.788;2.302;2023-07-24T06:54:28;2.10;;;1.73;;
59846;SDS011;45728;48.788;2.302;2023-07-24T06:56:54;2.33;;;2.10;;
59846;SDS011;45728;48.788;2.302;2023-07-24T06:59:20;2.45;;;1.92;;
59846;SDS011;45728;48.788;2.302;2023-07-24T07:01:46;1.98;;;1.70;;
59846;SDS011;45728;48.788;2.302;2023-07-24T07:04:12;2.38;;;1.88;;
59846;SDS011;45728;48.788;2.302;2023-07-24T07:06:38;2.78;;;1.58;;
59846;SDS011;45728;48.788;2.302;2023-07-24T07:09:04;3.08;;;2.03;;
59846;SDS011;45728;48.788;2.302;2023-07-24T07:11:30;4.68;;;2.17;;
59846;SDS011;45728;48.788;2.302;2023-07-24T07:13:56;3.30;;;1.90;;
59846;SDS011;45728;48.788;2.302;2023-07-24T07:16:23;3.25;;;1.73;;
59846;SDS011;45728;48.788;2.302;2023-07-24T07:18:49;2.30;;;1.60;;
59846;SDS011;45728;48.788;2.302;2023-07-24T07:21:15;3.15;;;1.92;;
59846;SDS011;45728;48.788;2.302;2023-07-24T07:23:41;2.97;;;1.98;;
59846;SDS011;45728;48.788;2.302;2023-07-24T07:26:07;3.25;;;1.80;;
59846;SDS011;45728;48.788;2.302;2023-07-24T07:28:33;2.33;;;1.63;;
59846;SDS011;45728;48.788;2.302;2023-07-24T07:30:59;3.17;;;2.00;;
59846;SDS011;45728;48.788;2.302;2023-07-24T07:33:25;1.60;;;1.50;;
59846;SDS011;45728;48.788;2.302;2023-07-24T07:35:51;4.10;;;1.83;;
59846;SDS011;45728;48.788;2.302;2023-07-24T07:38:17;2.28;;;1.85;;
59846;SDS011;45728;48.788;2.302;2023-07-24T07:40:43;2.63;;;1.80;;
59846;SDS011;45728;48.788;2.302;2023-07-24T07:43:09;4.15;;;2.15;;
59846;SDS011;45728;48.788;2.302;2023-07-24T07:45:35;3.03;;;2.17;;
59846;SDS011;45728;48.788;2.302;2023-07-24T07:48:01;5.43;;;1.95;;
59846;SDS011;45728;48.788;2.302;2023-07-24T07:50:27;3.60;;;1.95;;
59846;SDS011;45728;48.788;2.302;2023-07-24T07:52:53;3.60;;;2.00;;
59846;SDS011;45728;48.788;2.302;2023-07-24T07:55:19;4.25;;;2.20;;
59846;SDS011;45728;48.788;2.302;2023-07-24T07:57:46;3.33;;;1.90;;
59846;SDS011;45728;48.788;2.302;2023-07-24T08:00:12;4.25;;;2.20;;
59846;SDS011;45728;48.788;2.302;2023-07-24T08:02:38;3.78;;;2.42;;
59846;SDS011;45728;48.788;2.302;2023-07-24T08:05:08;2.88;;;2.00;;
59846;SDS011;45728;48.788;2.302;2023-07-24T08:07:35;4.45;;;1.85;;
59846;SDS011;45728;48.788;2.302;2023-07-24T08:10:02;4.38;;;1.85;;
59846;SDS011;45728;48.788;2.302;2023-07-24T08:12:28;2.78;;;1.83;;
59846;SDS011;45728;48.788;2.302;2023-07-24T08:14:58;4.18;;;2.00;;
59846;SDS011;45728;48.788;2.302;2023-07-24T08:17:24;3.00;;;1.80;;
59846;SDS011;45728;48.788;2.302;2023-07-24T08:19:50;3.78;;;2.00;;
59846;SDS011;45728;48.788;2.302;2023-07-24T08:22:16;5.22;;;2.30;;
59846;SDS011;45728;48.788;2.302;2023-07-24T08:24:42;7.72;;;2.35;;
59846;SDS011;45728;48.788;2.302;2023-07-24T08:27:10;5.43;;;2.40;;
59846;SDS011;45728;48.788;2.302;2023-07-24T08:29:36;4.00;;;2.03;;
59846;SDS011;45728;48.788;2.302;2023-07-24T08:32:03;3.47;;;2.00;;
59846;SDS011;45728;48.788;2.302;2023-07-24T08:34:30;3.55;;;1.52;;
59846;SDS011;45728;48.788;2.302;2023-07-24T08:36:56;3.25;;;1.80;;
59846;SDS011;45728;48.788;2.302;2023-07-24T08:39:22;4.18;;;1.98;;
59846;SDS011;45728;48.788;2.302;2023-07-24T08:41:48;3.70;;;1.70;;
59846;SDS011;45728;48.788;2.302;2023-07-24T08:44:15;6.90;;;1.95;;
59846;SDS011;45728;48.788;2.302;2023-07-24T08:46:41;4.10;;;1.60;;
59846;SDS011;45728;48.788;2.302;2023-07-24T08:49:11;5.00;;;1.75;;
59846;SDS011;45728;48.788;2.302;2023-07-24T08:54:24;2.72;;;1.50;;
59846;SDS011;45728;48.788;2.302;2023-07-24T08:56:52;2.30;;;1.77;;
59846;SDS011;45728;48.788;2.302;2023-07-24T08:59:19;3.78;;;1.85;;
59846;SDS011;45728;48.788;2.302;2023-07-24T09:01:45;3.42;;;1.60;;
59846;SDS011;45728;48.788;2.302;2023-07-24T09:04:11;3.85;;;1.80;;
59846;SDS011;45728;48.788;2.302;2023-07-24T09:06:37;4.40;;;1.63;;
59846;SDS011;45728;48.788;2.302;2023-07-24T09:09:12;3.65;;;2.05;;
59846;SDS011;45728;48.788;2.302;2023-07-24T09:11:49;4.78;;;1.70;;
59846;SDS011;45728;48.788;2.302;2023-07-24T09:14:29;2.20;;;1.50;;
59846;SDS011;45728;48.788;2.302;2023-07-24T09:17:01;2.17;;;1.80;;
59846;SDS011;45728;48.788;2.302;2023-07-24T09:19:31;3.22;;;1.58;;
59846;SDS011;45728;48.788;2.302;2023-07-24T09:22:13;2.38;;;1.70;;
59846;SDS011;45728;48.788;2.302;2023-07-24T09:27:26;3.75;;;1.83;;
59846;SDS011;45728;48.788;2.302;2023-07-24T09:29:54;1.80;;;1.65;;
59846;SDS011;45728;48.788;2.302;2023-07-24T09:32:22;1.83;;;1.60;;
59846;SDS011;45728;48.788;2.302;2023-07-24T09:34:50;3.35;;;1.70;;
59846;SDS011;45728;48.788;2.302;2023-07-24T09:37:30;3.13;;;1.67;;
59846;SDS011;45728;48.788;2.302;2023-07-24T09:39:58;4.40;;;1.70;;
59846;SDS011;45728;48.788;2.302;2023-07-24T09:42:30;3.08;;;1.60;;
59846;SDS011;45728;48.788;2.302;2023-07-24T09:44:57;2.40;;;1.50;;
59846;SDS011;45728;48.788;2.302;2023-07-24T09:47:24;2.85;;;1.58;;
59846;SDS011;45728;48.788;2.302;2023-07-24T09:49:51;3.03;;;1.73;;
59846;SDS011;45728;48.788;2.302;2023-07-24T09:52:19;2.42;;;1.88;;
59846;SDS011;45728;48.788;2.302;2023-07-24T09:57:30;2.83;;;1.80;;
59846;SDS011;45728;48.788;2.302;2023-07-24T09:59:58;4.93;;;1.40;;
59846;SDS011;45728;48.788;2.302;2023-07-24T10:02:25;3.30;;;1.67;;
59846;SDS011;45728;48.788;2.302;2023-07-24T10:04:52;2.28;;;1.60;;
59846;SDS011;45728;48.788;2.302;2023-07-24T10:07:19;2.08;;;1.80;;
59846;SDS011;45728;48.788;2.302;2023-07-24T10:09:48;3.13;;;1.50;;
59846;SDS011;45728;48.788;2.302;2023-07-24T10:12:16;1.52;;;1.30;;
59846;SDS011;45728;48.788;2.302;2023-07-24T10:14:45;2.72;;;1.55;;
59846;SDS011;45728;48.788;2.302;2023-07-24T10:17:12;3.58;;;1.50;;
59846;SDS011;45728;48.788;2.302;2023-07-24T10:19:42;1.52;;;1.42;;
59846;SDS011;45728;48.788;2.302;2023-07-24T10:22:09;1.50;;;1.40;;
59846;SDS011;45728;48.788;2.302;2023-07-24T10:24:43;2.20;;;1.40;;
59846;SDS011;45728;48.788;2.302;2023-07-24T10:27:11;2.25;;;1.40;;
59846;SDS011;45728;48.788;2.302;2023-07-24T10:29:37;2.30;;;1.35;;
59846;SDS011;45728;48.788;2.302;2023-07-24T10:32:04;2.53;;;1.65;;
59846;SDS011;45728;48.788;2.302;2023-07-24T10:34:43;1.80;;;1.55;;
59846;SDS011;45728;48.788;2.302;2023-07-24T10:37:09;1.40;;;1.30;;
59846;SDS011;45728;48.788;2.302;2023-07-24T10:39:39;3.38;;;1.48;;
59846;SDS011;45728;48.788;2.302;2023-07-24T10:42:07;1.95;;;1.65;;
59846;SDS011;45728;48.788;2.302;2023-07-24T10:44:34;3.07;;;1.70;;
59846;SDS011;45728;48.788;2.302;2023-07-24T10:47:01;1.95;;;1.42;;
59846;SDS011;45728;48.788;2.302;2023-07-24T10:49:27;3.10;;;1.67;;
59846;SDS011;45728;48.788;2.302;2023-07-24T10:51:57;3.05;;;1.58;;
59846;SDS011;45728;48.788;2.302;2023-07-24T10:54:23;4.35;;;1.65;;
59846;SDS011;45728;48.788;2.302;2023-07-24T10:56:49;1.65;;;1.33;;
59846;SDS011;45728;48.788;2.302;2023-07-24T10:59:15;1.98;;;1.40;;
59846;SDS011;45728;48.788;2.302;2023-07-24T11:01:41;2.35;;;1.50;;
59846;SDS011;45728;48.788;2.302;2023-07-24T11:04:08;4.78;;;1.85;;
59846;SDS011;45728;48.788;2.302;2023-07-24T11:06:35;2.13;;;1.45;;
59846;SDS011;45728;48.788;2.302;2023-07-24T11:09:02;2.08;;;1.60;;
59846;SDS011;45728;48.788;2.302;2023-07-24T11:11:31;3.00;;;1.60;;
59846;SDS011;45728;48.788;2.302;2023-07-24T11:13:59;2.90;;;1.40;;
59846;SDS011;45728;48.788;2.302;2023-07-24T11:16:27;3.67;;;1.20;;
59846;SDS011;45728;48.788;2.302;2023-07-24T11:18:55;3.27;;;1.80;;
59846;SDS011;45728;48.788;2.302;2023-07-24T11:21:22;4.25;;;1.70;;
59846;SDS011;45728;48.788;2.302;2023-07-24T11:23:50;2.33;;;1.50;;
59846;SDS011;45728;48.788;2.302;2023-07-24T11:26:18;2.00;;;1.53;;
59846;SDS011;45728;48.788;2.302;2023-07-24T11:28:46;2.97;;;1.90;;
59846;SDS011;45728;48.788;2.302;2023-07-24T11:31:12;1.60;;;1.40;;
59846;SDS011;45728;48.788;2.302;2023-07-24T11:33:40;3.78;;;1.90;;
59846;SDS011;45728;48.788;2.302;2023-07-24T11:36:08;3.47;;;1.67;;
59846;SDS011;45728;48.788;2.302;2023-07-24T11:38:35;2.63;;;1.60;;
59846;SDS011;45728;48.788;2.302;2023-07-24T11:41:04;1.98;;;1.77;;
59846;SDS011;45728;48.788;2.302;2023-07-24T11:43:30;2.28;;;1.40;;
59846;SDS011;45728;48.788;2.302;2023-07-24T11:45:56;3.88;;;1.95;;
59846;SDS011;45728;48.788;2.302;2023-07-24T11:48:23;5.30;;;2.00;;
59846;SDS011;45728;48.788;2.302;2023-07-24T11:50:51;5.93;;;1.88;;
59846;SDS011;45728;48.788;2.302;2023-07-24T11:53:22;2.45;;;1.77;;
59846;SDS011;45728;48.788;2.302;2023-07-24T11:55:57;3.13;;;1.88;;
59846;SDS011;45728;48.788;2.302;2023-07-24T11:58:27;1.80;;;1.70;;
59846;SDS011;45728;48.788;2.302;2023-07-24T12:00:55;2.88;;;1.75;;
59846;SDS011;45728;48.788;2.302;2023-07-24T12:05:49;3.15;;;2.20;;
59846;SDS011;45728;48.788;2.302;2023-07-24T12:08:16;4.50;;;1.90;;
59846;SDS011;45728;48.788;2.302;2023-07-24T12:10:49;3.03;;;1.80;;
59846;SDS011;45728;48.788;2.302;2023-07-24T12:13:15;4.93;;;1.98;;
59846;SDS011;45728;48.788;2.302;2023-07-24T12:15:41;2.10;;;1.83;;
59846;SDS011;45728;48.788;2.302;2023-07-24T12:18:07;3.83;;;2.00;;
59846;SDS011;45728;48.788;2.302;2023-07-24T12:20:33;2.85;;;1.83;;
59846;SDS011;45728;48.788;2.302;2023-07-24T12:23:00;3.33;;;2.00;;
59846;SDS011;45728;48.788;2.302;2023-07-24T12:25:26;4.15;;;1.75;;
59846;SDS011;45728;48.788;2.302;2023-07-24T12:27:52;4.28;;;2.35;;
59846;SDS011;45728;48.788;2.302;2023-07-24T12:30:18;2.35;;;1.70;;
59846;SDS011;45728;48.788;2.302;2023-07-24T12:32:45;3.25;;;1.95;;
59846;SDS011;45728;48.788;2.302;2023-07-24T12:35:11;2.75;;;1.88;;
59846;SDS011;45728;48.788;2.302;2023-07-24T12:37:37;3.65;;;2.05;;
59846;SDS011;45728;48.788;2.302;2023-07-24T12:40:07;3.97;;;1.88;;
59846;SDS011;45728;48.788;2.302;2023-07-24T12:42:34;2.63;;;1.70;;
59846;SDS011;45728;48.788;2.302;2023-07-24T12:45:00;3.30;;;1.63;;
59846;SDS011;45728;48.788;2.302;2023-07-24T12:47:29;2.38;;;1.95;;
59846;SDS011;45728;48.788;2.302;2023-07-24T12:49:57;2.00;;;1.52;;
59846;SDS011;45728;48.788;2.302;2023-07-24T12:52:24;2.70;;;1.92;;
59846;SDS011;45728;48.788;2.302;2023-07-24T12:54:51;3.05;;;1.50;;
59846;SDS011;45728;48.788;2.302;2023-07-24T12:57:18;4.38;;;1.60;;
59846;SDS011;45728;48.788;2.302;2023-07-24T12:59:44;3.20;;;1.67;;
59846;SDS011;45728;48.788;2.302;2023-07-24T13:02:10;1.50;;;1.40;;
59846;SDS011;45728;48.788;2.302;2023-07-24T13:04:36;2.95;;;1.98;;
59846;SDS011;45728;48.788;2.302;2023-07-24T13:07:02;5.40;;;1.88;;
59846;SDS011;45728;48.788;2.302;2023-07-24T13:09:30;2.65;;;1.63;;
59846;SDS011;45728;48.788;2.302;2023-07-24T13:11:56;3.22;;;1.50;;
59846;SDS011;45728;48.788;2.302;2023-07-24T13:14:22;4.72;;;1.48;;
59846;SDS011;45728;48.788;2.302;2023-07-24T13:16:49;1.60;;;1.30;;
59846;SDS011;45728;48.788;2.302;2023-07-24T13:19:16;3.33;;;1.55;;
59846;SDS011;45728;48.788;2.302;2023-07-24T13:21:42;2.25;;;1.17;;
59846;SDS011;45728;48.788;2.302;2023-07-24T13:24:09;2.67;;;1.17;;
59846;SDS011;45728;48.788;2.302;2023-07-24T13:26:35;1.13;;;0.90;;
59846;SDS011;45728;48.788;2.302;2023-07-24T13:29:02;1.45;;;0.95;;
59846;SDS011;45728;48.788;2.302;2023-07-24T13:31:30;3.20;;;1.80;;
59846;SDS011;45728;48.788;2.302;2023-07-24T13:33:56;2.67;;;1.70;;
59846;SDS011;45728;48.788;2.302;2023-07-24T13:36:23;2.13;;;1.42;;
59846;SDS011;45728;48.788;2.302;2023-07-24T13:38:49;3.28;;;1.60;;
59846;SDS011;45728;48.788;2.302;2023-07-24T13:41:16;2.08;;;1.75;;
59846;SDS011;45728;48.788;2.302;2023-07-24T13:43:42;2.42;;;1.52;;
59846;SDS011;45728;48.788;2.302;2023-07-24T13:46:08;1.88;;;1.48;;
59846;SDS011;45728;48.788;2.302;2023-07-24T13:48:34;2.78;;;1.70;;
59846;SDS011;45728;48.788;2.302;2023-07-24T13:51:00;3.75;;;1.67;;
59846;SDS011;45728;48.788;2.302;2023-07-24T13:53:27;2.50;;;0.90;;
59846;SDS011;45728;48.788;2.302;2023-07-24T13:55:53;3.05;;;1.30;;
59846;SDS011;45728;48.788;2.302;2023-07-24T13:58:19;2.65;;;1.65;;
59846;SDS011;45728;48.788;2.302;2023-07-24T14:00:45;3.40;;;1.40;;
59846;SDS011;45728;48.788;2.302;2023-07-24T14:03:11;4.32;;;1.40;;
59846;SDS011;45728;48.788;2.302;2023-07-24T14:05:37;3.00;;;1.48;;
59846;SDS011;45728;48.788;2.302;2023-07-24T14:08:04;3.22;;;1.50;;
59846;SDS011;45728;48.788;2.302;2023-07-24T14:10:30;1.45;;;1.25;;
59846;SDS011;45728;48.788;2.302;2023-07-24T14:12:56;0.88;;;0.80;;
59846;SDS011;45728;48.788;2.302;2023-07-24T14:15:23;1.50;;;1.05;;
59846;SDS011;45728;48.788;2.302;2023-07-24T14:17:49;1.63;;;1.00;;
59846;SDS011;45728;48.788;2.302;2023-07-24T14:20:15;2.80;;;0.90;;
59846;SDS011;45728;48.788;2.302;2023-07-24T14:22:41;1.88;;;0.88;;
59846;SDS011;45728;48.788;2.302;2023-07-24T14:25:09;3.53;;;1.13;;
59846;SDS011;45728;48.788;2.302;2023-07-24T14:27:35;1.83;;;1.40;;
59846;SDS011;45728;48.788;2.302;2023-07-24T14:30:01;1.00;;;0.90;;
59846;SDS011;45728;48.788;2.302;2023-07-24T14:32:27;2.25;;;1.02;;
59846;SDS011;45728;48.788;2.302;2023-07-24T14:34:53;2.08;;;1.00;;
59846;SDS011;45728;48.788;2.302;2023-07-24T14:37:19;2.80;;;1.00;;
59846;SDS011;45728;48.788;2.302;2023-07-24T14:39:45;1.48;;;1.20;;
59846;SDS011;45728;48.788;2.302;2023-07-24T14:42:12;2.05;;;1.13;;
59846;SDS011;45728;48.788;2.302;2023-07-24T14:44:38;2.47;;;1.25;;
59846;SDS011;45728;48.788;2.302;2023-07-24T14:47:04;3.17;;;1.33;;
59846;SDS011;45728;48.788;2.302;2023-07-24T14:49:31;1.70;;;1.10;;
59846;SDS011;45728;48.788;2.302;2023-07-24T14:51:57;1.83;;;1.10;;
59846;SDS011;45728;48.788;2.302;2023-07-24T14:54:23;2.83;;;1.38;;
59846;SDS011;45728;48.788;2.302;2023-07-24T14:56:49;2.50;;;0.90;;
59846;SDS011;45728;48.788;2.302;2023-07-24T14:59:15;2.10;;;0.98;;
59846;SDS011;45728;48.788;2.302;2023-07-24T15:01:41;5.20;;;1.30;;
59846;SDS011;45728;48.788;2.302;2023-07-24T15:04:08;3.65;;;1.20;;